Time;durP1;ratioP1;P1;durP2;ratioP2;P2;SDS_P1;SDS_P2;PMS_P1;PMS_P2;Temp;Humidity;BMP_temperature;BMP_pressure;BME280_temperature;BME280_humidity;BME280_pressure;Samples;Min_cycle;Max_cycle;Signal;HPM_P1;HPM_P2
2024/04/03 00:00:24;;;;;;;13.70;3.92;;;8.60;99.90;;;;;;4981405;28;20161;-67
2024/04/03 00:02:49;;;;;;;13.70;2.95;;;8.60;99.90;;;;;;4982839;28;20038;-67
2024/04/03 00:05:15;;;;;;;13.95;3.35;;;8.60;99.90;;;;;;4983484;28;20137;-67
2024/04/03 00:07:40;;;;;;;11.45;3.70;;;8.50;99.90;;;;;;4983000;28;20042;-67
2024/04/03 00:10:07;;;;;;;13.13;4.07;;;8.50;99.90;;;;;;4965440;28;20050;-67
2024/04/03 00:12:32;;;;;;;14.68;3.83;;;8.50;99.90;;;;;;4983732;28;20505;-67
2024/04/03 00:14:58;;;;;;;15.38;3.53;;;8.40;99.90;;;;;;4983930;28;20042;-67
2024/04/03 00:17:23;;;;;;;14.95;4.40;;;8.50;99.90;;;;;;4979146;28;20043;-67
2024/04/03 00:19:49;;;;;;;12.52;3.25;;;8.50;99.90;;;;;;4980754;28;20466;-67
2024/04/03 00:22:14;;;;;;;10.13;3.55;;;8.50;99.90;;;;;;4982464;28;20030;-67
2024/04/03 00:24:40;;;;;;;15.80;4.70;;;8.40;99.90;;;;;;4980734;28;20038;-67
2024/04/03 00:27:05;;;;;;;12.73;4.03;;;8.50;99.90;;;;;;4979075;28;20042;-67
2024/04/03 00:29:31;;;;;;;14.95;4.15;;;8.50;99.90;;;;;;4980699;28;20038;-67
2024/04/03 00:31:57;;;;;;;17.98;4.60;;;8.60;99.90;;;;;;4984481;28;20483;-67
2024/04/03 00:34:22;;;;;;;16.92;4.90;;;8.60;99.90;;;;;;4976641;28;20046;-67
2024/04/03 00:36:48;;;;;;;17.15;5.28;;;8.60;99.90;;;;;;5015586;28;20061;-67
2024/04/03 00:39:14;;;;;;;19.33;4.70;;;8.60;99.90;;;;;;4981482;28;20125;-67
2024/04/03 00:41:39;;;;;;;12.57;4.22;;;8.70;99.90;;;;;;4983291;28;20027;-67
2024/04/03 00:44:05;;;;;;;15.82;5.00;;;8.70;99.90;;;;;;4983386;28;20045;-67
2024/04/03 00:46:31;;;;;;;14.68;5.25;;;8.60;99.90;;;;;;4981704;28;20447;-67
2024/04/03 00:48:57;;;;;;;13.38;4.32;;;8.70;99.90;;;;;;4975253;28;20090;-67
2024/04/03 00:51:23;;;;;;;15.88;5.20;;;8.70;99.90;;;;;;4982998;28;20050;-67
2024/04/03 00:53:49;;;;;;;19.05;4.82;;;8.70;99.90;;;;;;4978158;28;20078;-67
2024/04/03 00:56:16;;;;;;;16.35;4.80;;;8.80;99.90;;;;;;4979335;28;20046;-67
2024/04/03 00:58:42;;;;;;;16.85;5.15;;;8.60;99.90;;;;;;4982992;28;20037;-66
2024/04/03 01:01:07;;;;;;;15.23;4.93;;;8.60;99.90;;;;;;5012959;28;20031;-67
2024/04/03 01:03:33;;;;;;;19.48;5.38;;;8.60;99.90;;;;;;4982438;28;20035;-67
2024/04/03 01:06:05;;;;;;;12.57;4.45;;;8.60;99.90;;;;;;5014529;28;20092;-67
2024/04/03 01:08:32;;;;;;;16.45;4.05;;;8.60;99.90;;;;;;4997269;28;20121;-67
2024/04/03 01:10:58;;;;;;;19.25;4.32;;;8.60;99.90;;;;;;4978992;28;20043;-67
2024/04/03 01:13:25;;;;;;;19.27;4.45;;;8.70;99.90;;;;;;4983060;28;20038;-66
2024/04/03 01:15:54;;;;;;;19.40;4.43;;;8.70;99.90;;;;;;4981853;28;20039;-66
2024/04/03 01:18:21;;;;;;;17.30;4.43;;;8.60;99.90;;;;;;4982604;28;20384;-67
2024/04/03 01:20:47;;;;;;;26.60;6.85;;;8.70;99.90;;;;;;4983696;28;20500;-67
2024/04/03 01:23:12;;;;;;;17.92;5.18;;;8.60;99.90;;;;;;4987079;28;20797;-67
2024/04/03 01:25:38;;;;;;;14.55;3.63;;;8.70;99.90;;;;;;4980774;28;20050;-67
2024/04/03 01:28:04;;;;;;;17.45;4.28;;;8.70;99.90;;;;;;4984330;28;20073;-67
2024/04/03 01:30:29;;;;;;;19.20;4.32;;;8.70;99.90;;;;;;5012063;28;20074;-67
2024/04/03 01:32:55;;;;;;;23.25;5.93;;;8.70;99.90;;;;;;5016966;28;20986;-67
2024/04/03 01:35:20;;;;;;;23.50;4.13;;;8.60;99.90;;;;;;4988943;28;20050;-67
2024/04/03 01:37:46;;;;;;;15.25;4.05;;;8.60;99.90;;;;;;4989406;28;20441;-67
2024/04/03 01:40:12;;;;;;;15.65;4.03;;;8.70;99.90;;;;;;4987104;28;20077;-67
2024/04/03 01:42:37;;;;;;;16.98;4.10;;;8.70;99.90;;;;;;4989620;28;20477;-67
2024/04/03 01:45:04;;;;;;;15.38;3.65;;;8.70;99.90;;;;;;4985978;28;20043;-67
2024/04/03 01:47:29;;;;;;;17.48;3.88;;;8.70;99.90;;;;;;4983214;28;20841;-67
2024/04/03 01:49:55;;;;;;;14.30;4.20;;;8.70;99.90;;;;;;4983951;28;20050;-67
2024/04/03 01:52:21;;;;;;;15.52;3.88;;;8.70;99.90;;;;;;4985279;28;20043;-66
2024/04/03 01:54:48;;;;;;;20.58;5.35;;;8.70;99.90;;;;;;4983445;28;20039;-67
2024/04/03 01:57:14;;;;;;;19.83;4.47;;;8.70;99.90;;;;;;4986555;28;20054;-67
2024/04/03 01:59:41;;;;;;;19.85;4.57;;;8.80;99.90;;;;;;4983880;28;20042;-67
2024/04/03 02:02:06;;;;;;;16.42;3.65;;;8.80;99.90;;;;;;4985169;28;20389;-67
2024/04/03 02:04:32;;;;;;;16.35;4.22;;;8.80;99.90;;;;;;4982708;28;20054;-67
2024/04/03 02:06:57;;;;;;;18.77;4.45;;;8.80;99.90;;;;;;4988145;28;20049;-67
2024/04/03 02:09:23;;;;;;;15.02;4.07;;;8.80;99.90;;;;;;4985698;28;20081;-67
2024/04/03 02:11:49;;;;;;;16.88;4.53;;;8.80;99.90;;;;;;4986647;28;20567;-67
2024/04/03 02:14:15;;;;;;;12.32;3.83;;;8.90;99.90;;;;;;4985693;28;20038;-67
2024/04/03 02:16:43;;;;;;;19.35;4.57;;;8.80;99.90;;;;;;4986187;28;20496;-67
2024/04/03 02:19:09;;;;;;;18.63;4.28;;;8.90;99.90;;;;;;4983003;28;20045;-67
2024/04/03 02:21:35;;;;;;;12.48;4.28;;;9.10;99.90;;;;;;4989091;28;20038;-67
2024/04/03 02:24:02;;;;;;;16.75;4.38;;;9.00;99.90;;;;;;4992282;28;20104;-67
2024/04/03 02:26:27;;;;;;;16.80;4.55;;;8.90;99.90;;;;;;4982755;28;20042;-67
2024/04/03 02:28:53;;;;;;;14.55;3.85;;;9.00;99.90;;;;;;4988799;28;20088;-67
2024/04/03 02:31:19;;;;;;;14.95;4.18;;;9.00;99.90;;;;;;4984541;28;20509;-67
2024/04/03 02:33:44;;;;;;;14.48;4.05;;;9.10;99.90;;;;;;4985833;28;20108;-67
2024/04/03 02:36:11;;;;;;;16.33;4.53;;;9.20;99.90;;;;;;4987796;28;20057;-67
2024/04/03 02:38:37;;;;;;;12.48;3.95;;;9.10;99.90;;;;;;4983621;28;20110;-67
2024/04/03 02:41:03;;;;;;;16.10;4.22;;;9.00;99.90;;;;;;4986626;28;20042;-67
2024/04/03 02:43:29;;;;;;;11.13;3.92;;;9.10;99.90;;;;;;4984424;28;20030;-67
2024/04/03 02:45:55;;;;;;;20.42;4.80;;;9.10;99.90;;;;;;4985799;28;20042;-67
2024/04/03 02:48:21;;;;;;;16.90;4.72;;;9.10;99.90;;;;;;4982439;28;20054;-67
2024/04/03 02:51:07;;;;;;;16.38;5.20;;;9.10;99.90;;;;;;4981538;28;20512;-67
2024/04/03 02:53:33;;;;;;;10.68;4.47;;;9.10;99.90;;;;;;4983703;28;20504;-67
2024/04/03 02:56:08;;;;;;;13.68;4.38;;;9.00;99.90;;;;;;4985160;28;20043;-67
2024/04/03 02:58:35;;;;;;;16.10;4.82;;;9.10;99.90;;;;;;4984310;28;20030;-67
2024/04/03 03:01:07;;;;;;;18.23;4.70;;;9.10;99.90;;;;;;4984892;28;20071;-67
2024/04/03 03:03:33;;;;;;;15.52;4.63;;;9.00;99.90;;;;;;4980991;28;20046;-67
2024/04/03 03:06:00;;;;;;;16.17;4.45;;;9.00;99.90;;;;;;4986100;28;20080;-67
2024/04/03 03:08:30;;;;;;;14.52;4.35;;;9.00;99.90;;;;;;4984339;28;20026;-67
2024/04/03 03:10:57;;;;;;;22.60;6.15;;;9.00;99.90;;;;;;4985573;28;20034;-67
2024/04/03 03:13:26;;;;;;;14.02;5.63;;;9.00;99.90;;;;;;4986511;28;20504;-67
2024/04/03 03:15:53;;;;;;;19.10;6.53;;;9.00;99.90;;;;;;4983237;28;20039;-67
2024/04/03 03:18:19;;;;;;;15.50;5.20;;;9.00;99.90;;;;;;4985342;28;20121;-67
2024/04/03 03:20:47;;;;;;;13.15;5.13;;;9.00;99.90;;;;;;5014568;28;20034;-67
2024/04/03 03:23:12;;;;;;;14.88;6.13;;;9.00;99.90;;;;;;4984065;28;20046;-67
2024/04/03 03:25:38;;;;;;;14.95;5.90;;;9.00;99.90;;;;;;4989337;28;20034;-67
2024/04/03 03:28:04;;;;;;;18.70;5.97;;;9.00;99.90;;;;;;4986705;28;20038;-67
2024/04/03 03:30:30;;;;;;;17.05;6.78;;;9.00;99.90;;;;;;4983345;28;20048;-67
2024/04/03 03:32:55;;;;;;;19.60;6.65;;;9.00;99.90;;;;;;4978981;28;20054;-67
2024/04/03 03:35:21;;;;;;;20.23;6.90;;;9.00;99.90;;;;;;4987527;28;20037;-67
2024/04/03 03:37:46;;;;;;;18.83;6.60;;;9.00;99.90;;;;;;4983522;28;20038;-67
2024/04/03 03:40:12;;;;;;;18.45;7.82;;;9.00;99.90;;;;;;5012643;28;20077;-67
2024/04/03 03:42:37;;;;;;;17.13;6.57;;;9.00;99.90;;;;;;4969729;28;20485;-67
2024/04/03 03:45:03;;;;;;;17.30;7.72;;;9.00;99.90;;;;;;5015699;28;20068;-67
2024/04/03 03:47:29;;;;;;;15.30;6.65;;;9.00;99.90;;;;;;4981730;28;20042;-67
2024/04/03 03:52:40;;;;;;;21.48;7.85;;;8.90;99.90;;;;;;4984987;28;20030;-67
2024/04/03 03:55:06;;;;;;;15.45;7.88;;;8.90;99.90;;;;;;4987920;28;20122;-67
2024/04/03 03:57:32;;;;;;;19.85;7.63;;;8.90;99.90;;;;;;4984417;28;20508;-67
2024/04/03 03:59:58;;;;;;;17.65;7.75;;;8.90;99.90;;;;;;4980952;28;20086;-67
2024/04/03 04:02:24;;;;;;;23.45;8.23;;;8.90;99.90;;;;;;4982454;28;20030;-67
2024/04/03 04:04:53;;;;;;;18.27;8.38;;;8.90;99.90;;;;;;4983083;28;20066;-67
2024/04/03 04:07:20;;;;;;;18.48;8.30;;;8.90;99.90;;;;;;4999277;28;20050;-67
2024/04/03 04:09:50;;;;;;;19.48;10.00;;;9.50;99.90;;;;;;4983020;28;20505;-67
2024/04/03 04:12:19;;;;;;;18.35;9.38;;;9.10;99.90;;;;;;4980183;28;20057;-67
2024/04/03 04:14:49;;;;;;;19.70;9.57;;;8.90;99.90;;;;;;4980307;28;20050;-67
2024/04/03 04:17:15;;;;;;;15.80;8.52;;;8.90;99.90;;;;;;4982169;28;20046;-67
2024/04/03 04:19:42;;;;;;;21.23;9.57;;;8.90;99.90;;;;;;4983435;28;20034;-67
2024/04/03 04:22:07;;;;;;;19.05;9.02;;;8.90;99.90;;;;;;4983738;28;20370;-67
2024/04/03 04:24:36;;;;;;;18.80;9.65;;;8.80;99.90;;;;;;4983315;28;20093;-67
2024/04/03 04:27:07;;;;;;;18.25;10.40;;;9.10;99.90;;;;;;4983275;28;20121;-67
2024/04/03 04:29:36;;;;;;;24.40;10.75;;;8.80;99.90;;;;;;5012364;28;20053;-67
2024/04/03 04:32:04;;;;;;;17.50;9.27;;;8.90;99.90;;;;;;4984960;28;20050;-67
2024/04/03 04:34:30;;;;;;;22.23;11.25;;;8.90;99.90;;;;;;4978265;28;20078;-67
2024/04/03 04:36:56;;;;;;;22.13;12.20;;;9.10;99.90;;;;;;4984045;28;20109;-67
2024/04/03 04:39:22;;;;;;;20.05;10.80;;;8.90;99.90;;;;;;4980160;28;20034;-67
2024/04/03 04:41:51;;;;;;;23.92;12.52;;;8.80;99.90;;;;;;4979768;28;21879;-67
2024/04/03 04:44:17;;;;;;;15.27;10.02;;;8.90;99.90;;;;;;4977712;28;20043;-67
2024/04/03 04:46:50;;;;;;;20.20;11.13;;;8.90;99.90;;;;;;4976346;28;20046;-67
2024/04/03 04:49:16;;;;;;;22.45;11.13;;;8.90;99.90;;;;;;4979971;28;20034;-67
2024/04/03 04:51:43;;;;;;;23.92;12.93;;;8.90;99.90;;;;;;4981359;28;20130;-67
2024/04/03 04:54:09;;;;;;;21.75;12.20;;;9.00;99.90;;;;;;4980649;28;20046;-67
2024/04/03 04:56:35;;;;;;;22.88;12.73;;;9.00;99.90;;;;;;4985666;28;20083;-67
2024/04/03 04:59:00;;;;;;;23.50;13.38;;;8.90;99.90;;;;;;4982942;28;20080;-67
2024/04/03 05:01:26;;;;;;;22.02;13.30;;;9.00;99.90;;;;;;4983802;28;20038;-67
2024/04/03 05:03:52;;;;;;;19.38;12.75;;;9.00;99.90;;;;;;4983218;28;20069;-67
2024/04/03 05:06:17;;;;;;;22.08;12.35;;;9.00;99.90;;;;;;4988866;28;20038;-67
2024/04/03 05:08:44;;;;;;;23.45;12.35;;;9.00;99.90;;;;;;4985527;28;20050;-67
2024/04/03 05:11:10;;;;;;;21.75;12.75;;;9.00;99.90;;;;;;4983843;28;20050;-67
2024/04/03 05:13:35;;;;;;;19.90;12.75;;;9.00;99.90;;;;;;4986243;28;20108;-67
2024/04/03 05:16:09;;;;;;;22.63;12.68;;;9.00;99.90;;;;;;5016720;28;20500;-67
2024/04/03 05:18:35;;;;;;;23.08;13.75;;;9.50;99.90;;;;;;4985241;28;20113;-67
2024/04/03 05:21:01;;;;;;;16.20;11.95;;;9.10;99.90;;;;;;4979324;28;20200;-67
2024/04/03 05:23:28;;;;;;;20.48;13.20;;;9.10;99.90;;;;;;4988355;28;20046;-67
2024/04/03 05:26:04;;;;;;;23.23;13.32;;;9.10;99.90;;;;;;4984329;28;20122;-67
2024/04/03 05:28:31;;;;;;;18.00;13.13;;;9.10;99.90;;;;;;4988739;28;20034;-67
2024/04/03 05:31:08;;;;;;;21.20;12.93;;;9.10;99.90;;;;;;5015889;28;20050;-67
2024/04/03 05:33:35;;;;;;;19.52;11.50;;;9.10;99.90;;;;;;5016405;28;20051;-67
2024/04/03 05:36:02;;;;;;;20.50;12.25;;;9.10;99.90;;;;;;5018937;28;20101;-67
2024/04/03 05:38:28;;;;;;;20.75;11.95;;;9.10;99.90;;;;;;4983887;28;20062;-67
2024/04/03 05:40:54;;;;;;;16.70;12.32;;;9.10;99.90;;;;;;4984476;28;20485;-67
2024/04/03 05:43:21;;;;;;;20.55;12.60;;;9.10;99.90;;;;;;4987106;28;20205;-67
2024/04/03 05:45:47;;;;;;;17.15;12.30;;;9.10;99.90;;;;;;4987047;28;20046;-67
2024/04/03 05:48:14;;;;;;;14.13;11.25;;;9.10;99.90;;;;;;4986541;28;20085;-67
2024/04/03 05:50:40;;;;;;;15.55;11.52;;;9.10;99.90;;;;;;5016449;28;20069;-67
2024/04/03 05:53:06;;;;;;;15.32;11.55;;;9.10;99.90;;;;;;4985335;28;20038;-67
2024/04/03 05:55:32;;;;;;;14.02;11.00;;;9.30;99.90;;;;;;4982905;28;20050;-67
2024/04/03 05:57:58;;;;;;;18.35;12.02;;;9.20;99.90;;;;;;4986291;28;20546;-67
2024/04/03 06:00:24;;;;;;;15.07;10.88;;;9.30;99.90;;;;;;4986499;28;20524;-67
2024/04/03 06:02:50;;;;;;;14.75;11.05;;;9.30;99.90;;;;;;4983687;28;20046;-67
2024/04/03 06:05:16;;;;;;;16.38;11.80;;;9.40;99.90;;;;;;4981756;28;20042;-67
2024/04/03 06:07:44;;;;;;;18.75;11.85;;;9.30;99.90;;;;;;4982842;28;20038;-67
2024/04/03 06:10:12;;;;;;;18.63;13.13;;;9.30;99.90;;;;;;4981943;28;20140;-67
2024/04/03 06:12:39;;;;;;;18.33;12.23;;;9.30;99.90;;;;;;4982429;28;20077;-67
2024/04/03 06:15:06;;;;;;;19.55;12.77;;;9.30;99.90;;;;;;4974142;28;20054;-67
2024/04/03 06:17:31;;;;;;;15.32;12.93;;;9.40;99.90;;;;;;4985041;28;20072;-67
2024/04/03 06:19:57;;;;;;;16.35;12.52;;;9.40;99.90;;;;;;4984998;28;20783;-67
2024/04/03 06:22:23;;;;;;;17.05;11.65;;;9.40;99.90;;;;;;4983601;28;20035;-67
2024/04/03 06:24:49;;;;;;;14.60;11.93;;;9.40;99.90;;;;;;4984899;28;20763;-67
2024/04/03 06:27:14;;;;;;;14.65;11.27;;;9.40;99.90;;;;;;4981793;28;20432;-67
2024/04/03 06:29:40;;;;;;;12.70;11.40;;;9.50;99.90;;;;;;4982061;28;20058;-67
2024/04/03 06:32:06;;;;;;;15.13;11.60;;;9.50;99.90;;;;;;4983562;28;20043;-67
2024/04/03 06:34:32;;;;;;;16.33;11.50;;;9.50;99.90;;;;;;4980298;28;20434;-67
2024/04/03 06:36:58;;;;;;;11.88;10.30;;;9.60;99.90;;;;;;4982120;28;20046;-67
2024/04/03 06:39:24;;;;;;;13.02;11.20;;;9.60;99.90;;;;;;4976592;28;20073;-67
2024/04/03 06:41:50;;;;;;;15.15;11.80;;;10.00;99.90;;;;;;4978871;28;20042;-67
2024/04/03 06:44:16;;;;;;;14.38;10.90;;;9.70;99.90;;;;;;4980723;28;20054;-67
2024/04/03 06:46:41;;;;;;;13.05;11.18;;;9.60;99.90;;;;;;4983007;28;20079;-67
2024/04/03 06:49:10;;;;;;;17.23;11.48;;;9.60;99.90;;;;;;5008715;28;20057;-67
2024/04/03 06:51:36;;;;;;;12.15;10.95;;;9.70;99.90;;;;;;4978145;28;20619;-67
2024/04/03 06:54:03;;;;;;;17.48;11.35;;;10.10;99.90;;;;;;5010525;28;20054;-67
2024/04/03 06:56:33;;;;;;;15.35;10.85;;;9.70;99.90;;;;;;4981913;28;20042;-67
2024/04/03 06:58:58;;;;;;;12.38;10.43;;;9.80;99.90;;;;;;5015646;28;20963;-67
2024/04/03 07:01:24;;;;;;;14.30;10.80;;;9.80;99.90;;;;;;4981929;28;20073;-67
2024/04/03 07:03:51;;;;;;;13.18;11.48;;;9.80;99.90;;;;;;4982588;28;20105;-67
2024/04/03 07:06:18;;;;;;;13.30;10.23;;;9.90;99.90;;;;;;4981463;28;20077;-67
2024/04/03 07:08:43;;;;;;;12.18;9.85;;;9.90;99.90;;;;;;4983697;28;20042;-67
2024/04/03 07:11:09;;;;;;;13.18;9.45;;;9.90;99.90;;;;;;4984021;28;20088;-67
2024/04/03 07:13:36;;;;;;;12.80;9.00;;;9.90;99.90;;;;;;4980230;28;20065;-67
2024/04/03 07:16:01;;;;;;;10.30;8.98;;;9.90;99.90;;;;;;4978703;28;20457;-67
2024/04/03 07:18:27;;;;;;;12.15;8.73;;;9.90;99.90;;;;;;4982688;28;20073;-67
2024/04/03 07:20:55;;;;;;;10.85;8.90;;;9.90;99.90;;;;;;4979631;28;20112;-67
2024/04/03 07:23:31;;;;;;;10.23;8.15;;;9.90;99.90;;;;;;4979518;28;20476;-67
2024/04/03 07:25:58;;;;;;;8.90;7.20;;;10.00;99.90;;;;;;4986323;28;20081;-67
2024/04/03 07:28:26;;;;;;;10.23;8.07;;;10.00;99.90;;;;;;4984414;28;20552;-67
2024/04/03 07:30:54;;;;;;;11.55;7.88;;;10.00;99.90;;;;;;4979257;28;20061;-67
2024/04/03 07:33:20;;;;;;;10.10;7.28;;;9.90;99.90;;;;;;4981284;28;20066;-67
2024/04/03 07:35:46;;;;;;;8.98;7.10;;;10.00;99.90;;;;;;4980445;28;20039;-67
2024/04/03 07:38:12;;;;;;;7.18;6.22;;;10.00;99.90;;;;;;5013019;28;20113;-67
2024/04/03 07:40:38;;;;;;;10.40;7.03;;;10.10;99.90;;;;;;4977705;28;20063;-67
2024/04/03 07:43:04;;;;;;;8.32;6.30;;;10.20;99.90;;;;;;4981787;28;20133;-67
2024/04/03 07:45:30;;;;;;;7.63;6.80;;;10.10;99.90;;;;;;4980018;28;20053;-67
2024/04/03 07:47:58;;;;;;;9.52;7.30;;;10.10;99.90;;;;;;4980239;28;20039;-67
2024/04/03 07:50:24;;;;;;;6.20;5.60;;;10.10;99.90;;;;;;4983716;28;20042;-67
2024/04/03 07:52:50;;;;;;;7.30;5.93;;;10.20;99.90;;;;;;4980914;28;20049;-67
2024/04/03 07:55:15;;;;;;;7.25;5.50;;;10.10;99.90;;;;;;4978375;28;20046;-67
2024/04/03 07:57:41;;;;;;;7.80;5.30;;;10.30;99.90;;;;;;4980605;28;20037;-67
2024/04/03 08:00:10;;;;;;;7.97;6.10;;;10.20;99.90;;;;;;4976379;28;20034;-67
2024/04/03 08:02:41;;;;;;;5.85;4.90;;;10.30;99.90;;;;;;4975932;28;20034;-67
2024/04/03 08:05:09;;;;;;;6.28;5.55;;;10.30;99.90;;;;;;4994447;28;20108;-67
2024/04/03 08:07:35;;;;;;;6.65;4.35;;;10.30;99.90;;;;;;4982512;28;20046;-67
2024/04/03 08:10:02;;;;;;;5.25;4.70;;;10.30;99.90;;;;;;5012037;28;20050;-67
2024/04/03 08:12:27;;;;;;;4.50;4.03;;;10.30;99.90;;;;;;4976420;28;20042;-67
2024/04/03 08:14:55;;;;;;;4.35;3.70;;;10.40;99.90;;;;;;5004950;28;20050;-67
2024/04/03 08:17:20;;;;;;;5.57;4.10;;;10.30;99.90;;;;;;4972664;28;20104;-67
2024/04/03 08:19:50;;;;;;;4.68;3.80;;;10.40;99.90;;;;;;4978235;28;20114;-67
2024/04/03 08:22:16;;;;;;;4.68;3.80;;;10.30;99.90;;;;;;4979475;28;20038;-67
2024/04/03 08:24:41;;;;;;;4.88;4.05;;;10.40;99.90;;;;;;4962961;28;20453;-67
2024/04/03 08:27:07;;;;;;;5.85;3.85;;;10.40;99.90;;;;;;4978815;28;20412;-67
2024/04/03 08:29:37;;;;;;;7.82;3.72;;;10.70;99.90;;;;;;4981641;28;20055;-67
2024/04/03 08:32:03;;;;;;;5.03;3.90;;;10.60;99.90;;;;;;4982509;28;20129;-67
2024/04/03 08:34:29;;;;;;;5.85;3.92;;;10.60;99.90;;;;;;4964635;28;20046;-67
2024/04/03 08:36:56;;;;;;;5.15;3.63;;;10.80;99.90;;;;;;4982215;28;20039;-67
2024/04/03 08:39:21;;;;;;;4.95;3.13;;;10.80;99.90;;;;;;5016694;28;20050;-67
2024/04/03 08:41:48;;;;;;;4.13;2.88;;;11.20;99.90;;;;;;4984122;28;20489;-67
2024/04/03 08:44:15;;;;;;;3.67;2.72;;;10.90;99.90;;;;;;5016055;28;20057;-67
2024/04/03 08:46:44;;;;;;;2.97;2.67;;;11.00;99.90;;;;;;4983851;28;20034;-67
2024/04/03 08:49:11;;;;;;;4.45;2.80;;;11.00;99.90;;;;;;4994722;28;20046;-67
2024/04/03 08:51:37;;;;;;;6.35;2.90;;;11.00;99.90;;;;;;4982458;28;20049;-67
2024/04/03 08:54:04;;;;;;;3.17;2.60;;;11.00;99.90;;;;;;4984261;28;20431;-67
2024/04/03 08:56:30;;;;;;;8.32;3.50;;;11.00;99.90;;;;;;4985097;28;20048;-67
2024/04/03 08:58:58;;;;;;;4.45;2.53;;;11.00;99.90;;;;;;4985431;28;20477;-67
2024/04/03 09:01:24;;;;;;;4.05;2.45;;;11.00;99.90;;;;;;4982269;28;20042;-67
2024/04/03 09:03:49;;;;;;;5.25;2.72;;;11.10;99.90;;;;;;4983528;28;20041;-67
2024/04/03 09:06:15;;;;;;;4.10;2.58;;;11.10;99.90;;;;;;4981468;28;20034;-67
2024/04/03 09:08:42;;;;;;;3.30;2.25;;;11.10;99.90;;;;;;4985092;28;20081;-67
2024/04/03 09:11:07;;;;;;;3.22;2.20;;;11.10;99.90;;;;;;4982840;28;20097;-67
2024/04/03 09:13:33;;;;;;;4.00;2.20;;;11.20;99.90;;;;;;4983312;28;20064;-67
2024/04/03 09:16:00;;;;;;;3.85;2.33;;;11.10;99.90;;;;;;4983588;28;20146;-67
2024/04/03 09:18:26;;;;;;;4.00;2.60;;;11.10;99.90;;;;;;4980431;28;20104;-67
2024/04/03 09:20:52;;;;;;;5.30;2.53;;;11.10;99.90;;;;;;4982313;28;20030;-67
2024/04/03 09:23:18;;;;;;;2.00;1.83;;;11.20;99.90;;;;;;4980975;28;20039;-67
2024/04/03 09:25:44;;;;;;;2.40;1.80;;;11.10;99.90;;;;;;4983272;28;20101;-67
2024/04/03 09:28:11;;;;;;;2.40;1.63;;;11.10;99.90;;;;;;4984172;28;20442;-67
2024/04/03 09:30:45;;;;;;;3.28;1.75;;;11.00;99.90;;;;;;4982064;28;20049;-67
2024/04/03 09:33:12;;;;;;;2.13;1.48;;;11.10;99.90;;;;;;4984416;28;20073;-67
2024/04/03 09:35:42;;;;;;;3.85;1.65;;;11.00;99.90;;;;;;4983415;28;20050;-67
2024/04/03 09:38:14;;;;;;;2.22;1.85;;;10.90;99.90;;;;;;4987529;28;20042;-67
2024/04/03 09:40:40;;;;;;;4.00;1.50;;;10.90;99.90;;;;;;4983726;28;20038;-67
2024/04/03 09:43:10;;;;;;;2.63;1.80;;;10.90;99.90;;;;;;4983248;28;20502;-67
2024/04/03 09:45:36;;;;;;;2.13;1.48;;;10.90;99.90;;;;;;4982666;28;20060;-67
2024/04/03 09:48:09;;;;;;;3.33;1.55;;;10.90;99.90;;;;;;4982799;28;20046;-67
2024/04/03 09:50:42;;;;;;;4.78;2.03;;;11.00;99.90;;;;;;4979150;28;20046;-67
2024/04/03 09:53:13;;;;;;;2.75;1.42;;;10.90;99.90;;;;;;4980048;28;20053;-68
2024/04/03 09:55:40;;;;;;;5.63;2.00;;;11.20;99.90;;;;;;4983650;28;20069;-67
2024/04/03 09:58:19;;;;;;;6.13;2.38;;;11.30;99.90;;;;;;4980334;28;20097;-68
2024/04/03 10:00:52;;;;;;;4.60;2.33;;;10.90;99.90;;;;;;4983957;28;20049;-67
2024/04/03 10:03:27;;;;;;;4.32;2.95;;;11.00;99.90;;;;;;4980193;28;20555;-67
2024/04/03 10:06:00;;;;;;;4.50;2.80;;;11.10;99.90;;;;;;5015704;28;20046;-67
2024/04/03 10:08:35;;;;;;;5.40;2.47;;;11.10;99.90;;;;;;4981063;28;20050;-67
2024/04/03 10:11:08;;;;;;;6.88;3.15;;;11.10;99.90;;;;;;4979484;28;20049;-67
2024/04/03 10:13:36;;;;;;;5.93;2.63;;;11.20;99.90;;;;;;4983243;28;20101;-67
2024/04/03 10:16:10;;;;;;;6.35;2.45;;;11.40;99.90;;;;;;4981060;28;20047;-67
2024/04/03 10:18:36;;;;;;;5.13;2.20;;;11.20;99.90;;;;;;4981947;28;20038;-67
2024/04/03 10:21:03;;;;;;;4.13;2.33;;;11.20;99.90;;;;;;4981715;28;20042;-67
2024/04/03 10:23:28;;;;;;;3.92;2.10;;;11.20;99.90;;;;;;4978914;28;20031;-67
2024/04/03 10:25:55;;;;;;;4.47;2.20;;;11.20;99.90;;;;;;4980347;28;20070;-67
2024/04/03 10:28:21;;;;;;;6.55;2.28;;;11.10;99.90;;;;;;4981192;28;20094;-67
2024/04/03 10:30:55;;;;;;;4.75;2.22;;;11.10;99.90;;;;;;4976545;28;20042;-67
2024/04/03 10:33:21;;;;;;;8.38;2.47;;;11.10;99.90;;;;;;4977987;28;20042;-67
2024/04/03 10:35:48;;;;;;;5.18;2.13;;;11.10;99.90;;;;;;5011021;28;20057;-67
2024/04/03 10:38:13;;;;;;;5.03;2.13;;;11.10;99.90;;;;;;4983255;28;20460;-67
2024/04/03 10:40:39;;;;;;;4.68;2.15;;;11.10;99.90;;;;;;4980668;28;20047;-67
2024/04/03 10:43:05;;;;;;;4.38;2.28;;;11.10;99.90;;;;;;4978862;28;20035;-68
2024/04/03 10:45:30;;;;;;;4.95;1.90;;;11.20;99.90;;;;;;4977738;28;20054;-67
2024/04/03 10:47:56;;;;;;;3.33;1.70;;;11.20;99.90;;;;;;4977599;28;20144;-67
2024/04/03 10:50:23;;;;;;;5.20;1.98;;;11.30;99.90;;;;;;4980965;28;20038;-67
2024/04/03 10:52:50;;;;;;;4.45;1.85;;;11.20;99.90;;;;;;4980337;28;20058;-67
2024/04/03 10:55:20;;;;;;;4.43;2.25;;;11.30;99.90;;;;;;4969252;28;20068;-67
2024/04/03 10:57:52;;;;;;;6.80;1.70;;;11.40;99.90;;;;;;4982162;28;20049;-67
2024/04/03 11:00:20;;;;;;;4.07;1.90;;;11.40;99.90;;;;;;4978983;28;20053;-67
2024/04/03 11:02:46;;;;;;;5.22;1.85;;;11.60;99.90;;;;;;5008504;28;20047;-67
2024/04/03 11:05:15;;;;;;;4.78;1.80;;;11.70;99.90;;;;;;5014498;28;20618;-68
2024/04/03 11:07:45;;;;;;;4.35;2.05;;;11.80;99.90;;;;;;4979212;28;20050;-67
2024/04/03 11:10:12;;;;;;;4.75;1.75;;;11.90;99.90;;;;;;4976752;28;20046;-67
2024/04/03 11:12:38;;;;;;;4.47;2.33;;;11.80;99.90;;;;;;4981778;28;20043;-67
2024/04/03 11:15:05;;;;;;;5.75;1.65;;;11.80;99.90;;;;;;4980151;28;20129;-67
2024/04/03 11:17:31;;;;;;;7.97;2.28;;;11.90;99.90;;;;;;4979669;28;20407;-67
2024/04/03 11:19:57;;;;;;;6.13;2.22;;;12.00;99.90;;;;;;4995690;28;20049;-67
2024/04/03 11:22:23;;;;;;;3.05;1.48;;;12.00;99.90;;;;;;4980119;28;20423;-67
2024/04/03 11:24:48;;;;;;;5.25;1.65;;;12.00;99.90;;;;;;5008608;28;20050;-67
2024/04/03 11:27:15;;;;;;;6.55;2.10;;;12.00;99.90;;;;;;4981937;28;20042;-67
2024/04/03 11:29:41;;;;;;;4.18;1.17;;;12.00;99.90;;;;;;4977522;28;20050;-67
2024/04/03 11:32:08;;;;;;;4.10;1.40;;;12.10;99.90;;;;;;4978948;28;20891;-67
2024/04/03 11:34:35;;;;;;;2.95;1.35;;;12.00;99.90;;;;;;4984717;28;20038;-67
2024/04/03 11:37:00;;;;;;;4.00;1.45;;;11.90;99.90;;;;;;4979970;28;20069;-67
2024/04/03 11:39:30;;;;;;;4.22;1.73;;;11.90;99.90;;;;;;4962811;28;20485;-67
2024/04/03 11:41:57;;;;;;;3.47;1.15;;;11.90;99.90;;;;;;4981210;28;20042;-67
2024/04/03 11:44:23;;;;;;;3.88;1.27;;;12.00;99.90;;;;;;4978418;28;20043;-67
2024/04/03 11:46:49;;;;;;;3.40;1.50;;;11.90;99.90;;;;;;4978916;28;20419;-67
2024/04/03 11:49:14;;;;;;;2.65;1.42;;;11.90;99.90;;;;;;5007978;28;20167;-67
2024/04/03 11:51:40;;;;;;;2.60;1.27;;;11.90;99.90;;;;;;4978046;28;20100;-67
2024/04/03 11:54:07;;;;;;;3.50;1.75;;;11.90;99.90;;;;;;4981032;28;20567;-67
2024/04/03 11:56:33;;;;;;;2.70;1.00;;;11.90;99.90;;;;;;4981704;28;20054;-67
2024/04/03 11:58:59;;;;;;;2.78;0.90;;;11.90;99.90;;;;;;4978921;28;20387;-67
2024/04/03 12:01:25;;;;;;;2.42;1.02;;;11.90;99.90;;;;;;4979968;28;20129;-67
2024/04/03 12:03:51;;;;;;;2.55;1.17;;;11.90;99.90;;;;;;4980730;28;20038;-67
2024/04/03 12:06:17;;;;;;;4.80;1.20;;;12.20;99.90;;;;;;4980274;28;20046;-67
2024/04/03 12:08:48;;;;;;;3.92;1.13;;;11.90;99.90;;;;;;4979566;28;20085;-67
2024/04/03 12:11:13;;;;;;;2.50;1.25;;;12.40;99.90;;;;;;4978911;28;20511;-67
2024/04/03 12:13:39;;;;;;;2.72;0.80;;;12.10;99.90;;;;;;4981122;28;20050;-67
2024/04/03 12:16:05;;;;;;;1.30;0.88;;;12.10;99.90;;;;;;4978833;28;20145;-67
2024/04/03 12:18:37;;;;;;;5.93;1.58;;;12.10;99.90;;;;;;4980077;28;20043;-67
2024/04/03 12:21:09;;;;;;;0.98;0.68;;;12.20;99.90;;;;;;4980328;28;20050;-67
2024/04/03 12:23:35;;;;;;;2.03;0.90;;;12.30;99.90;;;;;;4981162;28;20062;-67
2024/04/03 12:26:04;;;;;;;3.03;1.35;;;12.50;99.90;;;;;;4978433;28;20038;-67
2024/04/03 12:28:29;;;;;;;1.85;1.25;;;12.50;99.90;;;;;;4977792;28;20049;-68
2024/04/03 12:30:55;;;;;;;2.47;1.70;;;12.80;99.90;;;;;;4980453;28;20042;-68
2024/04/03 12:33:22;;;;;;;2.92;1.20;;;13.00;99.90;;;;;;4976724;28;21482;-67
2024/04/03 12:35:48;;;;;;;2.72;1.05;;;13.10;99.90;;;;;;4972984;28;20082;-68
2024/04/03 12:38:13;;;;;;;2.00;1.27;;;13.10;99.90;;;;;;4979775;28;20121;-67
2024/04/03 12:40:39;;;;;;;2.55;1.63;;;13.10;99.90;;;;;;4978511;28;20047;-67
2024/04/03 12:43:05;;;;;;;2.00;1.20;;;13.30;99.90;;;;;;4979196;28;20053;-67
2024/04/03 12:45:32;;;;;;;3.42;1.70;;;13.10;99.90;;;;;;4976514;28;20808;-67